createdAt,value
2023-04-14T00:02:00.663Z,16.58
2023-04-14T00:04:27.660Z,13.23
2023-04-14T00:06:57.070Z,17.30
2023-04-14T00:09:24.092Z,17.15
2023-04-14T00:11:50.931Z,15.57
2023-04-14T00:14:17.694Z,18.80
2023-04-14T00:16:46.375Z,18.92
2023-04-14T00:19:13.205Z,13.43
2023-04-14T00:21:40.047Z,14.52
2023-04-14T00:24:06.807Z,14.68
2023-04-14T00:26:33.608Z,11.70
2023-04-14T00:29:00.654Z,14.20
2023-04-14T00:31:27.747Z,11.35
2023-04-14T00:33:54.522Z,9.55
2023-04-14T00:36:21.512Z,12.95
2023-04-14T00:38:48.872Z,15.88
2023-04-14T00:41:15.589Z,12.93
2023-04-14T00:43:42.297Z,18.08
2023-04-14T00:46:09.058Z,11.90
2023-04-14T00:48:36.472Z,13.43
2023-04-14T00:51:04.241Z,14.38
2023-04-14T00:53:32.723Z,11.98
2023-04-14T00:56:00.423Z,13.23
2023-04-14T00:58:27.601Z,17.77
2023-04-14T01:00:55.754Z,12.80
2023-04-14T01:03:24.697Z,15.10
2023-04-14T01:05:51.919Z,16.33
2023-04-14T01:08:19.897Z,18.00
2023-04-14T01:10:56.086Z,19.20
2023-04-14T01:13:43.469Z,15.25
2023-04-14T01:16:19.611Z,14.35
2023-04-14T01:18:55.995Z,17.67
2023-04-14T01:21:34.718Z,14.77
2023-04-14T01:24:13.381Z,12.75
2023-04-14T01:26:42.276Z,12.85
2023-04-14T01:29:48.880Z,15.95
2023-04-14T01:32:21.981Z,13.68
2023-04-14T01:34:57.986Z,11.38
2023-04-14T01:37:30.322Z,10.98
2023-04-14T01:40:07.769Z,15.02
2023-04-14T01:42:37.762Z,14.70
2023-04-14T01:45:15.620Z,12.02
2023-04-14T01:47:43.470Z,11.00
2023-04-14T01:50:12.281Z,15.00
2023-04-14T01:52:40.109Z,12.18
2023-04-14T01:55:09.633Z,7.78
2023-04-14T01:57:38.351Z,10.95
2023-04-14T02:00:08.015Z,15.35
2023-04-14T02:02:37.700Z,13.23
2023-04-14T02:05:08.325Z,8.48
2023-04-14T02:07:35.914Z,15.40
2023-04-14T02:10:05.315Z,12.27
2023-04-14T02:12:32.252Z,10.75
2023-04-14T02:15:01.107Z,7.32
2023-04-14T02:17:28.919Z,7.88
2023-04-14T02:19:56.871Z,10.23
2023-04-14T02:22:23.605Z,12.25
2023-04-14T02:24:51.370Z,10.52
2023-04-14T02:27:25.325Z,11.32
2023-04-14T02:29:55.153Z,13.20
2023-04-14T02:32:25.708Z,11.48
2023-04-14T02:34:59.092Z,13.00
2023-04-14T02:37:29.043Z,12.40
2023-04-14T02:40:07.476Z,8.70
2023-04-14T02:42:37.405Z,10.93
2023-04-14T02:45:07.176Z,14.15
2023-04-14T02:47:38.119Z,8.27
2023-04-14T02:50:09.332Z,10.30
2023-04-14T02:52:38.866Z,11.73
2023-04-14T02:55:07.812Z,10.27
2023-04-14T02:57:35.551Z,11.25
2023-04-14T03:00:03.798Z,10.15
2023-04-14T03:02:31.771Z,11.55
2023-04-14T03:04:59.488Z,11.30
2023-04-14T03:07:27.423Z,12.80
2023-04-14T03:09:55.539Z,14.40
2023-04-14T03:12:24.175Z,10.73
2023-04-14T03:14:52.075Z,14.55
2023-04-14T03:17:21.237Z,12.07
2023-04-14T03:19:50.515Z,10.90
2023-04-14T03:22:19.194Z,8.13
2023-04-14T03:24:46.821Z,9.73
2023-04-14T03:27:22.846Z,8.30
2023-04-14T03:29:52.981Z,11.55
2023-04-14T03:32:21.581Z,12.57
2023-04-14T03:34:54.143Z,10.93
2023-04-14T03:37:26.207Z,9.57
2023-04-14T03:39:54.199Z,9.30
2023-04-14T03:42:22.330Z,11.38
2023-04-14T03:44:53.370Z,10.23
2023-04-14T03:47:23.578Z,12.35
2023-04-14T03:49:52.529Z,14.65
2023-04-14T03:52:22.906Z,15.88
2023-04-14T03:54:53.272Z,16.83
2023-04-14T03:57:23.158Z,15.80
2023-04-14T03:59:51.182Z,11.88
2023-04-14T04:02:19.372Z,8.98
2023-04-14T04:04:47.339Z,11.48
2023-04-14T04:07:14.692Z,12.40
2023-04-14T04:09:42.871Z,15.38
2023-04-14T04:12:11.764Z,12.73
2023-04-14T04:14:40.478Z,12.15
2023-04-14T04:17:09.059Z,14.48
2023-04-14T04:19:37.874Z,11.82
2023-04-14T04:22:06.051Z,18.98
2023-04-14T04:24:40.515Z,18.35
2023-04-14T04:27:20.286Z,18.83
2023-04-14T04:29:54.053Z,21.20
2023-04-14T04:32:21.145Z,29.13
2023-04-14T04:34:50.384Z,23.75
2023-04-14T04:37:19.183Z,25.42
2023-04-14T04:39:46.049Z,24.08
2023-04-14T04:42:12.754Z,21.10
2023-04-14T04:44:39.513Z,26.27
2023-04-14T04:47:06.754Z,20.48
2023-04-14T04:49:33.519Z,21.58
2023-04-14T04:52:00.234Z,25.92
2023-04-14T04:54:27.183Z,21.90
2023-04-14T04:56:54.068Z,21.23
2023-04-14T04:59:20.790Z,18.90
2023-04-14T05:01:47.674Z,25.70
2023-04-14T05:04:14.542Z,21.77
2023-04-14T05:06:41.419Z,17.77
2023-04-14T05:09:08.237Z,20.25
2023-04-14T05:11:35.660Z,23.33
2023-04-14T05:14:03.029Z,20.25
2023-04-14T05:16:29.951Z,19.38
2023-04-14T05:18:56.700Z,21.30
2023-04-14T05:21:23.807Z,22.38
2023-04-14T05:23:51.103Z,20.10
2023-04-14T05:28:47.543Z,25.15
2023-04-14T05:31:14.454Z,23.52
2023-04-14T05:33:41.197Z,31.50
2023-04-14T05:36:07.974Z,28.58
2023-04-14T05:38:39.908Z,26.00
2023-04-14T05:41:07.495Z,27.13
2023-04-14T05:43:34.430Z,29.30
2023-04-14T05:46:01.637Z,28.58
2023-04-14T05:48:30.769Z,29.33
2023-04-14T05:50:58.177Z,29.92
2023-04-14T05:53:25.825Z,32.40
2023-04-14T05:55:53.210Z,31.33
2023-04-14T05:58:20.069Z,32.97
2023-04-14T06:00:47.121Z,28.38
2023-04-14T06:03:15.046Z,29.45
2023-04-14T06:05:41.974Z,30.13
2023-04-14T06:08:08.777Z,31.45
2023-04-14T06:10:35.861Z,32.70
2023-04-14T06:13:02.643Z,29.15
2023-04-14T06:15:29.826Z,29.58
2023-04-14T06:17:56.686Z,31.05
2023-04-14T06:20:23.544Z,28.83
2023-04-14T06:22:50.789Z,23.63
2023-04-14T06:25:17.505Z,26.90
2023-04-14T06:27:44.317Z,27.60
2023-04-14T06:30:11.721Z,25.38
2023-04-14T06:32:38.420Z,28.75
2023-04-14T06:35:05.562Z,32.00
2023-04-14T06:37:32.463Z,27.30
2023-04-14T06:39:59.247Z,27.75
2023-04-14T06:42:26.241Z,24.10
2023-04-14T06:44:53.104Z,26.50
2023-04-14T06:47:21.013Z,22.70
2023-04-14T06:49:48.228Z,23.27
2023-04-14T06:52:14.924Z,24.55
2023-04-14T06:54:42.331Z,23.58
2023-04-14T06:57:09.348Z,26.25
2023-04-14T06:59:36.686Z,20.55
2023-04-14T07:02:03.535Z,26.45
2023-04-14T07:04:30.596Z,18.20
2023-04-14T07:07:01.536Z,17.30
2023-04-14T07:09:31.206Z,20.30
2023-04-14T07:11:58.030Z,24.67
2023-04-14T07:14:24.853Z,18.75
2023-04-14T07:16:52.336Z,13.35
2023-04-14T07:19:19.409Z,20.88
2023-04-14T07:21:46.957Z,18.48
2023-04-14T07:24:15.599Z,18.95
2023-04-14T07:26:44.157Z,14.48
2023-04-14T07:29:10.920Z,17.60
2023-04-14T07:31:38.890Z,16.33
2023-04-14T07:34:05.986Z,17.58
2023-04-14T07:36:33.238Z,14.05
2023-04-14T07:39:00.276Z,14.48
2023-04-14T07:41:27.914Z,14.07
2023-04-14T07:43:59.469Z,13.30
2023-04-14T07:48:53.303Z,15.50
2023-04-14T07:51:20.790Z,14.15
2023-04-14T07:53:47.605Z,15.93
2023-04-14T07:56:15.584Z,12.15
2023-04-14T07:58:42.514Z,14.18
2023-04-14T08:01:09.310Z,11.85
2023-04-14T08:03:37.751Z,7.72
2023-04-14T08:06:09.002Z,9.93
2023-04-14T08:08:36.745Z,8.80
2023-04-14T08:11:03.530Z,13.48
2023-04-14T08:13:30.278Z,8.25
2023-04-14T08:15:57.059Z,11.35
2023-04-14T08:18:23.838Z,9.98
2023-04-14T08:20:50.629Z,10.40
2023-04-14T08:23:17.441Z,7.53
2023-04-14T08:25:44.648Z,8.15
2023-04-14T08:28:12.390Z,11.00
2023-04-14T08:30:39.065Z,7.43
2023-04-14T08:33:05.887Z,6.32
2023-04-14T08:35:36.837Z,5.32
2023-04-14T08:38:08.356Z,9.50
2023-04-14T08:40:40.897Z,8.27
2023-04-14T08:43:07.864Z,5.90
2023-04-14T08:45:35.572Z,6.32
2023-04-14T08:48:04.509Z,7.15
2023-04-14T08:50:42.334Z,9.75
2023-04-14T08:53:10.175Z,7.68
2023-04-14T08:55:41.869Z,5.32
2023-04-14T08:58:12.028Z,5.15
2023-04-14T09:00:40.157Z,4.43
2023-04-14T09:03:09.320Z,5.85
2023-04-14T09:05:37.301Z,3.65
2023-04-14T09:08:04.536Z,3.85
2023-04-14T09:10:31.844Z,5.80
2023-04-14T09:12:58.768Z,6.20
2023-04-14T09:15:28.626Z,8.57
2023-04-14T09:17:56.152Z,6.95
2023-04-14T09:20:35.962Z,4.18
2023-04-14T09:23:09.467Z,3.97
2023-04-14T09:25:38.237Z,5.80
2023-04-14T09:28:05.064Z,8.75
2023-04-14T09:30:32.795Z,6.68
2023-04-14T09:32:59.507Z,5.88
2023-04-14T09:35:46.569Z,4.90
2023-04-14T09:38:13.438Z,6.50
2023-04-14T09:40:44.376Z,5.70
2023-04-14T09:43:25.506Z,4.47
2023-04-14T09:45:52.827Z,6.55
2023-04-14T09:48:20.856Z,5.72
2023-04-14T09:51:00.128Z,4.80
2023-04-14T09:53:29.006Z,7.05
2023-04-14T09:55:57.110Z,6.57
2023-04-14T09:58:27.315Z,5.43
2023-04-14T10:00:55.300Z,6.20
2023-04-14T10:03:43.126Z,7.57
2023-04-14T10:06:15.905Z,4.93
2023-04-14T10:08:44.291Z,5.97
2023-04-14T10:11:14.198Z,3.85
2023-04-14T10:13:41.028Z,6.60
2023-04-14T10:16:08.929Z,8.27
2023-04-14T10:18:36.242Z,9.30
2023-04-14T10:21:04.280Z,8.73
2023-04-14T10:23:31.835Z,8.30
2023-04-14T10:25:59.384Z,7.65
2023-04-14T10:28:28.644Z,7.75
2023-04-14T10:30:57.602Z,9.00
2023-04-14T10:33:25.007Z,10.52
2023-04-14T10:35:58.944Z,7.75
2023-04-14T10:38:43.198Z,6.80
2023-04-14T10:41:11.260Z,3.67
2023-04-14T10:43:38.824Z,5.32
2023-04-14T10:46:07.759Z,9.02
2023-04-14T10:48:36.839Z,3.65
2023-04-14T10:51:05.777Z,5.35
2023-04-14T10:53:52.620Z,4.90
2023-04-14T10:56:21.624Z,6.72
2023-04-14T10:58:56.349Z,5.60
2023-04-14T11:01:31.531Z,7.95
2023-04-14T11:04:18.826Z,7.35
2023-04-14T11:06:46.167Z,4.38
2023-04-14T11:09:27.578Z,6.47
2023-04-14T11:11:56.677Z,6.35
2023-04-14T11:14:28.151Z,6.65
2023-04-14T11:19:32.686Z,7.07
2023-04-14T11:21:59.464Z,7.47
2023-04-14T11:24:26.741Z,8.57
2023-04-14T11:26:57.136Z,8.80
2023-04-14T11:29:24.078Z,6.60
2023-04-14T11:32:05.375Z,4.45
2023-04-14T11:34:33.517Z,5.30
2023-04-14T11:37:04.054Z,9.32
2023-04-14T11:39:31.006Z,5.82
2023-04-14T11:42:00.555Z,5.57
2023-04-14T11:44:27.577Z,4.75
2023-04-14T11:46:54.448Z,4.15
2023-04-14T11:49:35.903Z,4.78
2023-04-14T11:52:09.174Z,8.32
2023-04-14T11:54:37.298Z,5.05
2023-04-14T11:57:09.968Z,7.93
2023-04-14T11:59:47.692Z,6.53
2023-04-14T12:02:22.025Z,6.53
2023-04-14T12:04:50.938Z,7.15
2023-04-14T12:07:19.708Z,7.43
2023-04-14T12:09:50.469Z,5.28
2023-04-14T12:12:18.803Z,3.65
2023-04-14T12:14:47.421Z,5.55
2023-04-14T12:17:17.593Z,3.40
2023-04-14T12:19:48.890Z,7.28
2023-04-14T12:22:27.266Z,7.35
2023-04-14T12:24:55.396Z,4.93
2023-04-14T12:27:23.722Z,6.63
2023-04-14T12:29:51.660Z,4.60
2023-04-14T12:32:18.922Z,6.00
2023-04-14T12:34:58.569Z,6.10
2023-04-14T12:37:26.855Z,2.95
2023-04-14T12:40:00.492Z,2.80
2023-04-14T12:42:30.300Z,3.85
2023-04-14T12:44:58.939Z,4.03
2023-04-14T12:47:33.982Z,3.38
2023-04-14T12:50:02.325Z,4.35
2023-04-14T12:52:40.428Z,4.63
2023-04-14T12:55:08.173Z,4.68
2023-04-14T12:57:35.303Z,3.47
2023-04-14T13:00:02.195Z,3.65
2023-04-14T13:02:30.079Z,4.15
2023-04-14T13:04:57.369Z,4.10
2023-04-14T13:07:24.172Z,4.55
2023-04-14T13:09:52.019Z,6.15
2023-04-14T13:12:18.866Z,5.03
2023-04-14T13:14:45.651Z,3.35
2023-04-14T13:17:12.651Z,6.10
2023-04-14T13:19:39.490Z,5.80
2023-04-14T13:22:06.454Z,10.27
2023-04-14T13:24:33.146Z,4.10
2023-04-14T13:26:59.940Z,4.75
2023-04-14T13:29:26.687Z,3.90
2023-04-14T13:31:53.494Z,5.05
2023-04-14T13:34:20.427Z,6.30
2023-04-14T13:36:48.308Z,3.65
2023-04-14T13:39:15.445Z,3.63
2023-04-14T13:41:42.217Z,4.72
2023-04-14T13:44:09.160Z,3.97
2023-04-14T13:46:40.790Z,4.22
2023-04-14T13:49:08.057Z,2.75
2023-04-14T13:51:34.831Z,2.75
2023-04-14T13:54:01.655Z,2.92
2023-04-14T13:56:28.763Z,4.10
2023-04-14T13:58:55.513Z,3.85
2023-04-14T14:01:22.476Z,3.45
2023-04-14T14:03:50.635Z,3.38
2023-04-14T14:06:19.040Z,7.18
2023-04-14T14:08:46.147Z,3.63
2023-04-14T14:11:13.978Z,5.63
2023-04-14T14:13:40.832Z,4.30
2023-04-14T14:16:09.032Z,4.70
2023-04-14T14:18:38.889Z,2.22
2023-04-14T14:21:07.422Z,4.50
2023-04-14T14:23:34.294Z,3.80
2023-04-14T14:26:01.223Z,5.22
2023-04-14T14:28:28.126Z,3.70
2023-04-14T14:30:55.783Z,3.75
2023-04-14T14:33:22.542Z,4.18
2023-04-14T14:35:49.296Z,5.00
2023-04-14T14:38:16.039Z,3.22
2023-04-14T14:40:42.765Z,3.00
2023-04-14T14:43:09.565Z,4.18
2023-04-14T14:45:36.523Z,3.63
2023-04-14T14:48:03.999Z,3.95
2023-04-14T14:50:30.796Z,2.90
2023-04-14T14:52:57.418Z,4.03
2023-04-14T14:55:24.337Z,3.55
2023-04-14T14:57:51.392Z,2.78
2023-04-14T15:00:18.787Z,4.80
2023-04-14T15:02:45.630Z,4.38
2023-04-14T15:05:12.685Z,4.13
2023-04-14T15:07:39.806Z,5.85
2023-04-14T15:10:07.257Z,4.22
2023-04-14T15:12:33.995Z,3.05
2023-04-14T15:15:00.827Z,4.50
2023-04-14T15:17:27.569Z,4.15
2023-04-14T15:19:54.367Z,4.22
2023-04-14T15:22:21.290Z,4.70
2023-04-14T15:24:48.056Z,3.10
2023-04-14T15:27:14.757Z,7.28
2023-04-14T15:29:41.491Z,6.88
2023-04-14T15:32:08.240Z,4.80
2023-04-14T15:34:35.028Z,4.30
2023-04-14T15:37:01.833Z,5.82
2023-04-14T15:39:28.804Z,4.13
2023-04-14T15:41:55.778Z,4.82
2023-04-14T15:44:22.692Z,5.45
2023-04-14T15:46:50.287Z,7.40
2023-04-14T15:49:17.012Z,5.65
2023-04-14T15:51:43.722Z,4.53
2023-04-14T15:54:10.937Z,4.25
2023-04-14T15:56:37.601Z,4.30
2023-04-14T15:59:04.374Z,5.18
2023-04-14T16:01:31.202Z,5.60
2023-04-14T16:03:57.985Z,4.93
2023-04-14T16:06:24.809Z,5.18
2023-04-14T16:08:51.528Z,4.65
2023-04-14T16:11:19.233Z,4.88
2023-04-14T16:13:46.429Z,6.03
2023-04-14T16:16:14.977Z,6.57
2023-04-14T16:18:42.327Z,4.93
2023-04-14T16:21:09.226Z,4.80
2023-04-14T16:23:35.961Z,5.15
2023-04-14T16:26:02.829Z,8.10
2023-04-14T16:28:29.549Z,5.10
2023-04-14T16:30:59.894Z,4.85
2023-04-14T16:33:27.511Z,4.25
2023-04-14T16:35:57.094Z,4.97
2023-04-14T16:38:23.920Z,5.55
2023-04-14T16:40:56.281Z,6.60
2023-04-14T16:43:23.722Z,4.20
2023-04-14T16:45:51.778Z,5.63
2023-04-14T16:48:18.998Z,4.60
2023-04-14T16:50:48.844Z,3.28
2023-04-14T16:53:15.776Z,6.93
2023-04-14T16:55:42.619Z,4.47
2023-04-14T16:58:09.828Z,6.30
2023-04-14T17:00:37.494Z,5.25
2023-04-14T17:03:06.742Z,5.60
2023-04-14T17:05:33.859Z,5.15
2023-04-14T17:08:00.720Z,4.47
2023-04-14T17:10:29.486Z,5.65
2023-04-14T17:12:56.380Z,6.95
2023-04-14T17:15:23.676Z,5.80
2023-04-14T17:17:50.482Z,6.43
2023-04-14T17:20:17.314Z,6.68
2023-04-14T17:22:44.083Z,6.05
2023-04-14T17:25:12.366Z,3.53
2023-04-14T17:27:39.180Z,4.65
2023-04-14T17:30:07.933Z,5.47
2023-04-14T17:32:35.885Z,4.97
2023-04-14T17:35:03.722Z,5.20
2023-04-14T17:37:30.668Z,6.45
2023-04-14T17:39:59.090Z,4.82
2023-04-14T17:42:26.365Z,8.35
2023-04-14T17:44:53.150Z,5.18
2023-04-14T17:47:21.860Z,6.38
2023-04-14T17:49:50.011Z,7.38
2023-04-14T17:52:17.552Z,4.78
2023-04-14T17:54:45.848Z,4.22
2023-04-14T17:57:13.323Z,4.82
2023-04-14T17:59:41.616Z,5.35
2023-04-14T18:02:09.149Z,6.13
2023-04-14T18:04:36.282Z,6.30
2023-04-14T18:07:03.053Z,4.32
2023-04-14T18:09:29.808Z,5.65
2023-04-14T18:11:56.461Z,4.70
2023-04-14T18:14:24.052Z,5.07
2023-04-14T18:16:50.761Z,6.18
2023-04-14T18:19:17.912Z,5.38
2023-04-14T18:21:45.147Z,2.97
2023-04-14T18:26:42.424Z,4.05
2023-04-14T18:29:09.155Z,7.65
2023-04-14T18:31:35.989Z,6.38
2023-04-14T18:34:06.026Z,6.78
2023-04-14T18:36:33.381Z,3.55
2023-04-14T18:39:01.271Z,4.05
2023-04-14T18:41:28.194Z,3.40
2023-04-14T18:43:54.907Z,5.13
2023-04-14T18:46:21.902Z,6.82
2023-04-14T18:48:49.298Z,6.88
2023-04-14T18:51:16.618Z,4.60
2023-04-14T18:53:45.235Z,5.90
2023-04-14T18:56:13.429Z,3.97
2023-04-14T18:58:40.296Z,5.32
2023-04-14T19:01:08.318Z,4.15
2023-04-14T19:03:35.658Z,5.53
2023-04-14T19:06:02.499Z,6.43
2023-04-14T19:08:29.273Z,3.67
2023-04-14T19:10:57.420Z,3.38
2023-04-14T19:13:24.390Z,4.70
2023-04-14T19:15:51.106Z,5.82
2023-04-14T19:18:17.973Z,7.35
2023-04-14T19:20:47.347Z,5.03
2023-04-14T19:23:14.273Z,7.30
2023-04-14T19:25:41.863Z,4.00
2023-04-14T19:28:16.338Z,6.15
2023-04-14T19:30:44.344Z,5.13
2023-04-14T19:33:11.728Z,6.72
2023-04-14T19:35:39.029Z,6.60
2023-04-14T19:38:05.870Z,5.07
2023-04-14T19:40:32.649Z,3.97
2023-04-14T19:42:59.510Z,5.43
2023-04-14T19:45:26.230Z,6.07
2023-04-14T19:47:54.045Z,4.53
2023-04-14T19:50:22.722Z,7.90
2023-04-14T19:52:52.083Z,5.35
2023-04-14T19:55:19.080Z,6.80
2023-04-14T19:57:46.904Z,7.70
2023-04-14T20:00:14.134Z,6.18
2023-04-14T20:02:42.054Z,5.07
2023-04-14T20:05:09.988Z,4.03
2023-04-14T20:07:36.763Z,4.80
2023-04-14T20:10:04.061Z,5.93
2023-04-14T20:12:30.830Z,6.90
2023-04-14T20:14:58.178Z,5.90
2023-04-14T20:17:27.081Z,4.75
2023-04-14T20:19:53.909Z,6.43
2023-04-14T20:22:20.600Z,6.63
2023-04-14T20:24:47.523Z,6.50
2023-04-14T20:27:14.286Z,6.80
2023-04-14T20:29:41.027Z,8.98
2023-04-14T20:32:07.869Z,6.10
2023-04-14T20:34:35.430Z,5.60
2023-04-14T20:37:02.715Z,8.20
2023-04-14T20:39:29.511Z,7.45
2023-04-14T20:41:56.578Z,6.50
2023-04-14T20:44:23.597Z,7.53
2023-04-14T20:46:50.537Z,6.80
2023-04-14T20:49:17.488Z,5.80
2023-04-14T20:51:46.745Z,7.03
2023-04-14T20:54:13.951Z,7.82
2023-04-14T20:56:40.811Z,5.05
2023-04-14T20:59:07.665Z,6.63
2023-04-14T21:01:34.475Z,5.82
2023-04-14T21:04:02.437Z,7.50
2023-04-14T21:06:32.354Z,5.55
2023-04-14T21:08:59.709Z,8.25
2023-04-14T21:11:26.621Z,8.57
2023-04-14T21:15:42.231Z,6.03
2023-04-14T21:16:40.047Z,7.68
2023-04-14T21:19:07.524Z,4.72
2023-04-14T21:21:34.224Z,5.30
2023-04-14T21:24:01.965Z,7.30
2023-04-14T21:26:29.343Z,7.45
2023-04-14T21:28:56.521Z,7.53
2023-04-14T21:31:23.311Z,6.43
2023-04-14T21:33:50.434Z,5.13
2023-04-14T21:36:17.176Z,6.85
2023-04-14T21:38:44.196Z,7.18
2023-04-14T21:41:11.047Z,5.43
2023-04-14T21:43:40.663Z,5.75
2023-04-14T21:46:08.066Z,6.85
2023-04-14T21:48:34.977Z,6.93
2023-04-14T21:51:02.371Z,7.50
2023-04-14T21:53:29.633Z,9.93
2023-04-14T21:56:08.657Z,7.78
2023-04-14T21:58:37.400Z,7.27
2023-04-14T22:01:04.691Z,8.40
2023-04-14T22:03:33.235Z,8.52
2023-04-14T22:06:00.118Z,6.30
2023-04-14T22:08:26.900Z,7.85
2023-04-14T22:10:53.556Z,7.82
2023-04-14T22:13:20.865Z,8.10
2023-04-14T22:15:49.087Z,8.05
2023-04-14T22:18:17.130Z,9.05
2023-04-14T22:20:45.118Z,8.35
2023-04-14T22:23:13.109Z,8.13
2023-04-14T22:25:39.882Z,8.15
2023-04-14T22:28:07.335Z,10.63
2023-04-14T22:30:34.138Z,7.95
2023-04-14T22:33:01.162Z,6.25
2023-04-14T22:35:27.958Z,7.30
2023-04-14T22:37:54.692Z,11.45
2023-04-14T22:40:22.011Z,7.85
2023-04-14T22:42:48.751Z,7.97
2023-04-14T22:45:15.522Z,7.68
2023-04-14T22:47:42.270Z,5.35
2023-04-14T22:50:09.481Z,9.20
2023-04-14T22:52:36.384Z,8.48
2023-04-14T22:55:03.358Z,8.18
2023-04-14T22:57:30.090Z,7.88
2023-04-14T22:59:57.399Z,8.32
2023-04-14T23:02:24.256Z,8.93
2023-04-14T23:04:51.292Z,6.78
2023-04-14T23:07:18.094Z,8.20
2023-04-14T23:09:44.912Z,7.70
2023-04-14T23:12:11.988Z,6.35
2023-04-14T23:14:38.760Z,10.25
2023-04-14T23:17:05.733Z,6.60
2023-04-14T23:19:33.571Z,8.45
2023-04-14T23:22:00.295Z,6.32
2023-04-14T23:24:27.028Z,7.10
2023-04-14T23:26:54.068Z,9.10
2023-04-14T23:29:20.957Z,11.10
2023-04-14T23:31:47.678Z,10.88
2023-04-14T23:34:14.425Z,9.18
2023-04-14T23:36:41.683Z,7.85
2023-04-14T23:39:08.546Z,10.18
2023-04-14T23:41:35.510Z,8.73
2023-04-14T23:44:02.261Z,11.18
2023-04-14T23:46:29.150Z,8.95
2023-04-14T23:48:56.815Z,8.82
2023-04-14T23:51:24.161Z,11.32
2023-04-14T23:53:51.788Z,11.93
2023-04-14T23:56:18.540Z,10.45
2023-04-14T23:58:45.306Z,12.27
